Time;durP1;ratioP1;P1;durP2;ratioP2;P2;SDS_P1;SDS_P2;PMS_P1;PMS_P2;Temp;Humidity;BMP_temperature;BMP_pressure;BME280_temperature;BME280_humidity;BME280_pressure;Samples;Min_cycle;Max_cycle;Signal;HPM_P1;HPM_P2
2023/09/08 00:02:25;;;;;;;7.33;6.30;;;;;;;;;;5035788;28;20179;-67
2023/09/08 00:04:51;;;;;;;9.73;6.00;;;;;;;;;;5035788;28;20172;-67
2023/09/08 00:07:16;;;;;;;11.03;6.83;;;;;;;;;;5035579;28;20210;-66
2023/09/08 00:09:42;;;;;;;7.33;6.47;;;;;;;;;;5035540;28;20194;-67
2023/09/08 00:12:08;;;;;;;14.23;6.40;;;;;;;;;;5017805;28;20179;-66
2023/09/08 00:14:34;;;;;;;10.43;6.27;;;;;;;;;;5035482;28;20183;-67
2023/09/08 00:17:00;;;;;;;7.00;6.30;;;;;;;;;;5035010;28;20219;-66
2023/09/08 00:19:26;;;;;;;7.43;6.23;;;;;;;;;;5017715;28;20185;-66
2023/09/08 00:21:52;;;;;;;13.47;6.13;;;;;;;;;;5035290;28;20182;-66
2023/09/08 00:24:18;;;;;;;9.53;6.47;;;;;;;;;;5035421;28;20490;-67
2023/09/08 00:26:44;;;;;;;8.57;6.43;;;;;;;;;;5035205;28;20234;-67
2023/09/08 00:29:10;;;;;;;10.77;6.70;;;;;;;;;;5035069;28;20176;-67
2023/09/08 00:31:36;;;;;;;8.17;6.53;;;;;;;;;;5017400;28;20194;-67
2023/09/08 00:34:02;;;;;;;7.47;6.07;;;;;;;;;;5034938;28;20212;-66
2023/09/08 00:36:28;;;;;;;9.37;6.70;;;;;;;;;;5017245;28;20225;-67
2023/09/08 00:38:54;;;;;;;8.13;6.77;;;;;;;;;;5017461;28;20669;-67
2023/09/08 00:41:20;;;;;;;16.93;7.10;;;;;;;;;;5017429;28;20175;-66
2023/09/08 00:43:46;;;;;;;11.10;6.63;;;;;;;;;;5017415;28;20266;-67
2023/09/08 00:46:12;;;;;;;7.03;6.33;;;;;;;;;;5034961;28;20288;-67
2023/09/08 00:48:38;;;;;;;8.97;6.30;;;;;;;;;;5034978;28;20182;-67
2023/09/08 00:51:07;;;;;;;13.67;6.60;;;;;;;;;;5017344;28;20183;-66
2023/09/08 00:53:33;;;;;;;9.93;6.53;;;;;;;;;;5035089;28;20258;-66
2023/09/08 00:56:00;;;;;;;8.10;6.67;;;;;;;;;;5034975;28;20611;-65
2023/09/08 00:58:26;;;;;;;8.97;6.13;;;;;;;;;;5035117;28;20549;-65
2023/09/08 01:00:52;;;;;;;9.17;6.70;;;;;;;;;;5034946;28;20221;-66
2023/09/08 01:03:18;;;;;;;10.40;6.50;;;;;;;;;;5034636;28;20183;-66
2023/09/08 01:05:46;;;;;;;13.10;6.60;;;;;;;;;;5037812;28;20262;-66
2023/09/08 01:08:12;;;;;;;8.30;7.00;;;;;;;;;;5036320;28;20610;-66
2023/09/08 01:10:39;;;;;;;9.87;6.43;;;;;;;;;;5034622;28;20175;-66
2023/09/08 01:13:05;;;;;;;9.00;6.77;;;;;;;;;;5034692;28;20171;-66
2023/09/08 01:15:31;;;;;;;6.97;6.37;;;;;;;;;;5016514;28;20237;-66
2023/09/08 01:17:56;;;;;;;10.37;6.90;;;;;;;;;;5016426;28;20214;-66
2023/09/08 01:20:52;;;;;;;8.80;6.83;;;;;;;;;;5034314;28;20192;-67
2023/09/08 01:23:19;;;;;;;9.10;7.30;;;;;;;;;;4999736;28;20702;-67
2023/09/08 01:25:57;;;;;;;10.37;7.67;;;;;;;;;;5034191;28;20555;-67
2023/09/08 01:28:24;;;;;;;7.57;6.47;;;;;;;;;;5034071;28;20233;-67
2023/09/08 01:30:50;;;;;;;9.90;7.50;;;;;;;;;;5034070;28;20261;-67
2023/09/08 01:33:16;;;;;;;8.67;7.10;;;;;;;;;;5033950;28;20186;-67
2023/09/08 01:35:42;;;;;;;12.33;7.47;;;;;;;;;;5034546;28;20281;-66
2023/09/08 01:38:08;;;;;;;7.77;6.60;;;;;;;;;;5033874;28;20202;-67
2023/09/08 01:40:34;;;;;;;7.50;6.53;;;;;;;;;;5034332;28;20179;-67
2023/09/08 01:43:01;;;;;;;7.77;6.97;;;;;;;;;;5034219;28;20222;-67
2023/09/08 01:45:27;;;;;;;7.37;6.67;;;;;;;;;;5033506;28;20241;-67
2023/09/08 01:47:53;;;;;;;9.07;7.13;;;;;;;;;;5033732;28;20309;-66
2023/09/08 01:50:22;;;;;;;9.13;6.60;;;;;;;;;;5033982;28;20263;-68
2023/09/08 01:52:48;;;;;;;9.50;7.20;;;;;;;;;;5015938;28;20189;-66
2023/09/08 01:55:15;;;;;;;7.03;6.33;;;;;;;;;;5015644;28;20242;-66
2023/09/08 01:57:40;;;;;;;7.20;6.50;;;;;;;;;;5033435;28;20684;-65
2023/09/08 02:00:07;;;;;;;8.70;7.20;;;;;;;;;;5015780;28;20185;-66
2023/09/08 02:02:33;;;;;;;7.23;6.53;;;;;;;;;;5033484;28;20183;-66
2023/09/08 02:04:59;;;;;;;8.00;6.07;;;;;;;;;;5033732;28;20198;-66
2023/09/08 02:07:25;;;;;;;7.27;6.47;;;;;;;;;;5033220;28;20572;-66
2023/09/08 02:09:51;;;;;;;9.40;7.37;;;;;;;;;;5033051;28;20229;-65
2023/09/08 02:12:16;;;;;;;9.93;7.00;;;;;;;;;;5033555;28;20187;-67
2023/09/08 02:14:42;;;;;;;11.40;6.90;;;;;;;;;;5033131;28;20186;-66
2023/09/08 02:17:08;;;;;;;8.77;7.03;;;;;;;;;;5032995;28;20577;-66
2023/09/08 02:19:34;;;;;;;7.97;6.73;;;;;;;;;;5033020;28;20233;-66
2023/09/08 02:22:00;;;;;;;9.57;7.53;;;;;;;;;;5015354;28;20695;-66
2023/09/08 02:24:26;;;;;;;8.20;7.37;;;;;;;;;;5032971;28;20258;-66
2023/09/08 02:26:53;;;;;;;8.10;7.23;;;;;;;;;;5015258;28;20202;-66
2023/09/08 02:29:19;;;;;;;10.00;7.43;;;;;;;;;;5032992;28;20262;-66
2023/09/08 02:31:45;;;;;;;14.67;7.77;;;;;;;;;;5015128;28;20278;-67
2023/09/08 02:34:12;;;;;;;9.77;7.33;;;;;;;;;;5032973;28;20262;-67
2023/09/08 02:36:38;;;;;;;11.53;7.77;;;;;;;;;;5015041;28;20210;-66
2023/09/08 02:39:04;;;;;;;8.37;7.57;;;;;;;;;;5015077;28;20553;-66
2023/09/08 02:41:30;;;;;;;11.63;7.50;;;;;;;;;;5033074;28;20551;-66
2023/09/08 02:43:57;;;;;;;12.53;8.17;;;;;;;;;;5032747;28;20186;-67
2023/09/08 02:46:23;;;;;;;8.23;7.40;;;;;;;;;;5032681;28;20229;-66
2023/09/08 02:48:49;;;;;;;9.13;7.30;;;;;;;;;;5032676;28;20233;-67
2023/09/08 02:51:15;;;;;;;9.10;7.50;;;;;;;;;;5033090;28;20183;-67
2023/09/08 02:53:40;;;;;;;8.33;7.43;;;;;;;;;;5032790;28;20679;-67
2023/09/08 02:56:06;;;;;;;11.93;7.07;;;;;;;;;;5017666;28;20596;-67
2023/09/08 02:58:33;;;;;;;8.17;7.10;;;;;;;;;;5018933;28;20182;-66
2023/09/08 03:01:09;;;;;;;8.27;7.27;;;;;;;;;;5036971;28;20179;-66
2023/09/08 03:03:35;;;;;;;11.23;7.30;;;;;;;;;;5036696;28;20155;-67
2023/09/08 03:06:03;;;;;;;11.97;7.87;;;;;;;;;;5036571;28;20233;-66
2023/09/08 03:08:29;;;;;;;11.50;7.70;;;;;;;;;;5018857;28;20211;-67
2023/09/08 03:10:59;;;;;;;9.70;7.60;;;;;;;;;;5036606;28;20198;-66
2023/09/08 03:13:29;;;;;;;13.00;7.23;;;;;;;;;;5036810;28;20194;-67
2023/09/08 03:15:55;;;;;;;10.43;7.77;;;;;;;;;;5037758;28;20206;-66
2023/09/08 03:18:21;;;;;;;9.13;7.40;;;;;;;;;;5020783;28;20183;-66
2023/09/08 03:20:51;;;;;;;10.17;7.40;;;;;;;;;;5039310;28;20182;-66
2023/09/08 03:23:17;;;;;;;8.40;7.60;;;;;;;;;;5038309;28;20186;-66
2023/09/08 03:25:43;;;;;;;8.57;7.70;;;;;;;;;;5037947;28;20189;-65
2023/09/08 03:28:09;;;;;;;9.83;8.27;;;;;;;;;;5036951;28;20195;-66
2023/09/08 03:30:35;;;;;;;9.53;7.93;;;;;;;;;;5036721;28;20229;-66
2023/09/08 03:33:01;;;;;;;12.07;8.53;;;;;;;;;;5018684;28;20183;-66
2023/09/08 03:35:27;;;;;;;10.50;7.70;;;;;;;;;;5036270;28;20633;-67
2023/09/08 03:37:53;;;;;;;8.47;7.63;;;;;;;;;;5036183;28;20269;-67
2023/09/08 03:40:20;;;;;;;11.13;8.33;;;;;;;;;;5018814;28;20614;-66
2023/09/08 03:42:46;;;;;;;11.67;7.90;;;;;;;;;;5018283;28;20234;-66
2023/09/08 03:45:12;;;;;;;9.80;7.80;;;;;;;;;;5036113;28;20179;-66
2023/09/08 03:47:38;;;;;;;8.67;7.77;;;;;;;;;;5018144;28;20210;-66
2023/09/08 03:50:04;;;;;;;11.97;8.40;;;;;;;;;;5036046;28;20233;-66
2023/09/08 03:52:30;;;;;;;10.37;8.43;;;;;;;;;;5035814;28;20551;-66
2023/09/08 03:54:56;;;;;;;8.87;7.40;;;;;;;;;;5035680;28;20183;-66
2023/09/08 03:57:22;;;;;;;11.70;8.60;;;;;;;;;;5017715;28;20230;-66
2023/09/08 03:59:48;;;;;;;9.93;8.00;;;;;;;;;;5035614;28;20179;-66
2023/09/08 04:02:14;;;;;;;10.77;7.97;;;;;;;;;;5035485;28;20175;-66
2023/09/08 04:04:39;;;;;;;10.20;8.37;;;;;;;;;;5035499;28;20179;-65
2023/09/08 04:07:05;;;;;;;9.93;8.47;;;;;;;;;;5035121;28;20198;-66
2023/09/08 04:09:32;;;;;;;10.07;8.00;;;;;;;;;;5035479;28;20256;-66
2023/09/08 04:11:58;;;;;;;8.43;7.60;;;;;;;;;;5017675;28;20245;-67
2023/09/08 04:14:26;;;;;;;11.77;7.80;;;;;;;;;;5017615;28;20183;-65
2023/09/08 04:16:53;;;;;;;10.80;8.40;;;;;;;;;;5035182;28;20802;-66
2023/09/08 04:19:19;;;;;;;8.17;7.37;;;;;;;;;;5035796;28;20176;-66
2023/09/08 04:21:45;;;;;;;11.17;8.27;;;;;;;;;;5035131;28;20183;-66
2023/09/08 04:24:11;;;;;;;9.53;8.47;;;;;;;;;;5017547;28;20577;-66
2023/09/08 04:26:37;;;;;;;9.47;8.20;;;;;;;;;;5035508;28;20672;-67
2023/09/08 04:29:03;;;;;;;9.83;8.23;;;;;;;;;;5034951;28;20276;-66
2023/09/08 04:31:29;;;;;;;10.40;8.80;;;;;;;;;;5035116;28;20190;-67
2023/09/08 04:33:55;;;;;;;13.60;8.40;;;;;;;;;;5035008;28;20179;-66
2023/09/08 04:36:21;;;;;;;9.77;8.83;;;;;;;;;;5017037;28;20501;-66
2023/09/08 04:38:47;;;;;;;11.87;8.43;;;;;;;;;;5035094;28;20207;-68
2023/09/08 04:41:15;;;;;;;9.80;7.97;;;;;;;;;;5034995;28;20627;-65
2023/09/08 04:43:41;;;;;;;10.27;8.60;;;;;;;;;;5034878;28;20242;-67
2023/09/08 04:46:08;;;;;;;8.53;7.60;;;;;;;;;;5017050;28;20187;-67
2023/09/08 04:48:34;;;;;;;10.60;8.40;;;;;;;;;;5034489;28;20179;-67
2023/09/08 04:51:00;;;;;;;10.47;8.27;;;;;;;;;;5017039;28;20562;-66
2023/09/08 04:53:26;;;;;;;10.03;8.73;;;;;;;;;;5034620;28;20250;-66
2023/09/08 04:55:52;;;;;;;11.10;9.90;;;;;;;;;;5034485;28;20230;-65
2023/09/08 04:58:18;;;;;;;10.90;8.57;;;;;;;;;;5034551;28;20175;-65
2023/09/08 05:00:44;;;;;;;9.77;8.43;;;;;;;;;;5034497;28;20207;-66
2023/09/08 05:03:10;;;;;;;9.47;8.53;;;;;;;;;;5034540;28;20180;-67
2023/09/08 05:05:35;;;;;;;12.90;9.13;;;;;;;;;;5034487;28;20176;-65
2023/09/08 05:08:02;;;;;;;16.90;9.60;;;;;;;;;;5034709;28;20288;-65
2023/09/08 05:10:28;;;;;;;10.97;9.00;;;;;;;;;;5016787;28;20252;-66
2023/09/08 05:12:53;;;;;;;10.37;8.00;;;;;;;;;;5034870;28;20572;-65
2023/09/08 05:15:21;;;;;;;10.50;8.00;;;;;;;;;;5034252;28;20187;-65
2023/09/08 05:17:47;;;;;;;10.47;8.73;;;;;;;;;;5016219;28;20277;-66
2023/09/08 05:20:13;;;;;;;12.23;9.70;;;;;;;;;;5033241;28;20556;-65
2023/09/08 05:22:39;;;;;;;13.67;9.60;;;;;;;;;;5016233;28;20656;-65
2023/09/08 05:25:05;;;;;;;13.17;9.63;;;;;;;;;;5016570;28;20270;-66
2023/09/08 05:27:31;;;;;;;14.73;10.20;;;;;;;;;;5035659;28;20284;-65
2023/09/08 05:29:58;;;;;;;16.97;10.67;;;;;;;;;;5035239;28;20718;-66
2023/09/08 05:32:24;;;;;;;13.00;10.23;;;;;;;;;;5016109;28;20179;-65
2023/09/08 05:34:50;;;;;;;11.27;9.50;;;;;;;;;;5034153;28;20183;-64
2023/09/08 05:37:16;;;;;;;12.60;9.80;;;;;;;;;;5033690;28;20219;-65
2023/09/08 05:39:42;;;;;;;12.93;10.50;;;;;;;;;;5033760;28;20262;-65
2023/09/08 05:42:08;;;;;;;15.97;9.77;;;;;;;;;;5033709;28;20179;-65
2023/09/08 05:44:34;;;;;;;13.20;9.10;;;;;;;;;;5015712;28;20179;-66
2023/09/08 05:47:00;;;;;;;18.43;9.50;;;;;;;;;;5015609;28;20198;-66
2023/09/08 05:49:26;;;;;;;23.90;9.30;;;;;;;;;;5033751;28;20523;-65
2023/09/08 05:51:52;;;;;;;15.03;9.37;;;;;;;;;;5034049;28;20175;-65
2023/09/08 05:54:18;;;;;;;10.47;9.23;;;;;;;;;;5030798;22;20168;-70
2023/09/08 05:56:44;;;;;;;15.27;9.77;;;;;;;;;;5016175;28;20207;-70
2023/09/08 05:59:10;;;;;;;11.13;8.80;;;;;;;;;;5016059;28;20175;-70
2023/09/08 06:01:36;;;;;;;16.80;9.77;;;;;;;;;;5034064;28;20181;-69
2023/09/08 06:04:03;;;;;;;11.27;9.30;;;;;;;;;;5033753;28;20167;-69
2023/09/08 06:06:29;;;;;;;17.00;9.47;;;;;;;;;;5033919;28;20183;-69
2023/09/08 06:08:55;;;;;;;14.23;9.93;;;;;;;;;;5033840;28;20187;-70
2023/09/08 06:11:21;;;;;;;19.33;9.50;;;;;;;;;;5016002;28;20211;-69
2023/09/08 06:13:47;;;;;;;12.47;9.40;;;;;;;;;;5034310;28;20186;-69
2023/09/08 06:16:13;;;;;;;18.03;10.50;;;;;;;;;;5033807;28;20604;-69
2023/09/08 06:18:39;;;;;;;21.33;10.73;;;;;;;;;;5015894;28;20187;-69
2023/09/08 06:21:06;;;;;;;20.07;10.73;;;;;;;;;;5033962;28;20193;-69
2023/09/08 06:23:33;;;;;;;20.90;10.93;;;;;;;;;;5015893;28;20179;-70
2023/09/08 06:25:59;;;;;;;20.07;11.57;;;;;;;;;;5015732;28;20206;-70
2023/09/08 06:28:26;;;;;;;25.03;12.57;;;;;;;;;;5033594;28;20203;-69
2023/09/08 06:30:52;;;;;;;27.33;13.33;;;;;;;;;;5015375;28;20175;-69
2023/09/08 06:33:18;;;;;;;34.50;14.37;;;;;;;;;;5034002;28;20179;-70
2023/09/08 06:35:44;;;;;;;24.37;13.27;;;;;;;;;;5033247;28;20201;-69
2023/09/08 06:38:10;;;;;;;27.37;13.67;;;;;;;;;;5033407;28;20262;-69
2023/09/08 06:40:36;;;;;;;22.73;12.30;;;;;;;;;;5033294;28;20228;-69
2023/09/08 06:43:02;;;;;;;25.87;12.50;;;;;;;;;;5033440;28;20615;-69
2023/09/08 06:45:28;;;;;;;24.90;11.87;;;;;;;;;;5015519;28;20703;-69
2023/09/08 06:47:54;;;;;;;20.73;11.70;;;;;;;;;;5033187;28;20179;-69
2023/09/08 06:50:21;;;;;;;23.27;11.77;;;;;;;;;;5016020;28;20216;-69
2023/09/08 06:52:47;;;;;;;16.57;11.17;;;;;;;;;;5015950;28;20226;-69
2023/09/08 06:55:16;;;;;;;15.83;10.50;;;;;;;;;;5033206;28;20245;-69
2023/09/08 06:57:42;;;;;;;19.73;10.67;;;;;;;;;;5016281;28;20203;-70
2023/09/08 07:00:08;;;;;;;17.77;10.40;;;;;;;;;;5033666;28;20546;-70
2023/09/08 07:02:34;;;;;;;18.23;10.30;;;;;;;;;;5033158;28;20171;-69
2023/09/08 07:05:06;;;;;;;17.23;10.30;;;;;;;;;;5015516;28;20199;-69
2023/09/08 07:07:32;;;;;;;24.80;15.73;;;;;;;;;;5033346;28;20586;-69
2023/09/08 07:09:58;;;;;;;28.53;13.77;;;;;;;;;;5033062;28;20209;-69
2023/09/08 07:12:24;;;;;;;25.63;15.17;;;;;;;;;;5015459;28;20229;-70
2023/09/08 07:14:50;;;;;;;21.70;14.30;;;;;;;;;;5015764;28;20218;-69
2023/09/08 07:17:16;;;;;;;14.20;10.67;;;;;;;;;;5032940;28;20210;-69
2023/09/08 07:19:41;;;;;;;14.37;10.23;;;;;;;;;;5015339;28;20211;-70
2023/09/08 07:22:07;;;;;;;12.70;9.20;;;;;;;;;;5033050;28;20175;-70
2023/09/08 07:24:33;;;;;;;13.23;8.13;;;;;;;;;;5015205;28;20213;-70
2023/09/08 07:27:00;;;;;;;10.63;7.47;;;;;;;;;;5033530;28;20653;-70
2023/09/08 07:29:26;;;;;;;14.63;6.70;;;;;;;;;;5033201;28;20179;-69
2023/09/08 07:31:52;;;;;;;11.67;7.03;;;;;;;;;;5033107;28;20649;-69
2023/09/08 07:34:19;;;;;;;7.47;5.90;;;;;;;;;;5032953;28;20235;-71
2023/09/08 07:36:45;;;;;;;10.97;6.47;;;;;;;;;;5035195;28;20203;-69
2023/09/08 07:39:11;;;;;;;9.53;5.87;;;;;;;;;;5015045;28;20186;-69
2023/09/08 07:41:39;;;;;;;7.73;6.03;;;;;;;;;;5033075;28;20186;-69
2023/09/08 07:44:05;;;;;;;9.20;6.37;;;;;;;;;;5018348;28;20186;-68
2023/09/08 07:46:31;;;;;;;11.80;5.97;;;;;;;;;;5036648;28;20589;-68
2023/09/08 07:48:58;;;;;;;11.00;6.27;;;;;;;;;;5036485;28;20215;-69
2023/09/08 07:51:24;;;;;;;9.70;7.33;;;;;;;;;;5036426;28;20194;-69
2023/09/08 07:53:50;;;;;;;13.87;8.30;;;;;;;;;;5018648;28;20270;-69
2023/09/08 07:56:16;;;;;;;9.03;6.33;;;;;;;;;;5018333;28;20318;-68
2023/09/08 07:58:42;;;;;;;9.53;6.37;;;;;;;;;;5018615;28;20186;-68
2023/09/08 08:01:08;;;;;;;21.80;10.13;;;;;;;;;;5018257;28;20187;-68
2023/09/08 08:03:35;;;;;;;17.20;9.37;;;;;;;;;;5018248;28;20254;-68
2023/09/08 08:06:01;;;;;;;12.53;7.60;;;;;;;;;;5018149;28;20199;-69
2023/09/08 08:08:27;;;;;;;8.03;5.40;;;;;;;;;;5018140;28;20245;-69
2023/09/08 08:10:53;;;;;;;8.50;6.40;;;;;;;;;;5036377;28;20183;-69
2023/09/08 08:13:19;;;;;;;8.97;5.80;;;;;;;;;;5036105;28;20263;-69
2023/09/08 08:15:47;;;;;;;5.77;5.17;;;;;;;;;;5017952;28;20199;-68
2023/09/08 08:18:13;;;;;;;7.20;5.53;;;;;;;;;;5018010;28;20179;-69
2023/09/08 08:20:39;;;;;;;7.20;5.97;;;;;;;;;;5036244;28;20202;-69
2023/09/08 08:23:06;;;;;;;9.93;5.50;;;;;;;;;;5018470;28;20179;-69
2023/09/08 08:25:32;;;;;;;9.80;6.30;;;;;;;;;;5035655;28;20197;-69
2023/09/08 08:28:00;;;;;;;8.37;5.93;;;;;;;;;;5035859;28;20224;-70
2023/09/08 08:30:26;;;;;;;11.57;5.60;;;;;;;;;;5036106;28;20636;-69
2023/09/08 08:32:53;;;;;;;9.20;5.87;;;;;;;;;;5018091;28;20190;-69
2023/09/08 08:35:19;;;;;;;6.57;5.43;;;;;;;;;;5034956;28;20198;-69
2023/09/08 08:37:45;;;;;;;8.03;5.87;;;;;;;;;;5035473;28;20253;-70
2023/09/08 08:40:12;;;;;;;9.73;6.07;;;;;;;;;;5017397;28;20667;-70
2023/09/08 08:42:38;;;;;;;7.63;5.70;;;;;;;;;;5017386;28;20189;-70
2023/09/08 08:45:05;;;;;;;10.63;6.00;;;;;;;;;;5017547;28;20253;-69
2023/09/08 08:47:31;;;;;;;8.83;5.70;;;;;;;;;;5035258;28;20175;-69
2023/09/08 08:50:00;;;;;;;11.37;6.90;;;;;;;;;;5017371;28;20244;-70
2023/09/08 08:52:27;;;;;;;13.07;7.17;;;;;;;;;;5017137;28;20194;-69
2023/09/08 08:54:53;;;;;;;16.23;8.80;;;;;;;;;;5016869;28;20227;-69
2023/09/08 08:57:20;;;;;;;15.83;8.93;;;;;;;;;;5034873;28;20304;-69
2023/09/08 08:59:46;;;;;;;11.63;8.00;;;;;;;;;;5035449;28;20606;-69
2023/09/08 09:02:14;;;;;;;12.40;8.73;;;;;;;;;;5034966;28;20181;-69
2023/09/08 09:04:40;;;;;;;15.40;9.53;;;;;;;;;;5016809;28;20200;-69
2023/09/08 09:07:07;;;;;;;18.20;9.73;;;;;;;;;;5034794;28;20201;-69
2023/09/08 09:09:33;;;;;;;12.43;9.27;;;;;;;;;;5035012;28;20179;-69
2023/09/08 09:11:59;;;;;;;15.90;7.93;;;;;;;;;;5035542;28;20179;-69
2023/09/08 09:14:25;;;;;;;21.93;8.57;;;;;;;;;;5018773;28;20227;-69
2023/09/08 09:16:51;;;;;;;17.27;9.00;;;;;;;;;;5038886;28;20199;-69
2023/09/08 09:19:25;;;;;;;13.13;7.37;;;;;;;;;;5017543;28;20190;-69
2023/09/08 09:21:51;;;;;;;12.90;7.87;;;;;;;;;;5017257;28;20233;-69
2023/09/08 09:24:33;;;;;;;12.83;7.23;;;;;;;;;;5034957;28;20175;-70
2023/09/08 09:27:00;;;;;;;13.33;7.60;;;;;;;;;;5016884;28;20175;-70
2023/09/08 09:29:27;;;;;;;13.17;7.67;;;;;;;;;;5034463;28;20297;-70
2023/09/08 09:32:06;;;;;;;21.40;10.90;;;;;;;;;;5034462;28;20574;-70
2023/09/08 09:34:32;;;;;;;11.30;7.97;;;;;;;;;;5034473;28;20198;-70
2023/09/08 09:36:58;;;;;;;11.63;7.60;;;;;;;;;;5034143;28;20286;-70
2023/09/08 09:39:25;;;;;;;10.60;8.00;;;;;;;;;;5016852;28;20564;-70
2023/09/08 09:41:55;;;;;;;13.17;7.77;;;;;;;;;;5016792;28;20262;-70
2023/09/08 09:44:21;;;;;;;19.53;8.23;;;;;;;;;;5034405;28;20199;-70
2023/09/08 09:46:48;;;;;;;8.60;7.00;;;;;;;;;;5034347;28;20183;-70
2023/09/08 09:49:14;;;;;;;17.23;10.13;;;;;;;;;;5016313;28;20270;-70
2023/09/08 09:51:41;;;;;;;12.90;7.97;;;;;;;;;;5016272;28;20667;-69
2023/09/08 09:54:07;;;;;;;16.63;6.30;;;;;;;;;;5033892;28;20539;-69
2023/09/08 09:56:33;;;;;;;15.27;6.90;;;;;;;;;;5016233;28;20266;-69
2023/09/08 09:58:59;;;;;;;9.37;6.60;;;;;;;;;;5016319;28;20561;-69
2023/09/08 10:01:25;;;;;;;10.40;7.20;;;;;;;;;;5034242;28;20254;-69
2023/09/08 10:03:53;;;;;;;15.03;7.73;;;;;;;;;;5017188;28;20597;-70
2023/09/08 10:06:20;;;;;;;7.23;6.37;;;;;;;;;;5016912;28;20289;-70
2023/09/08 10:08:46;;;;;;;11.00;6.97;;;;;;;;;;5017717;28;20183;-69
2023/09/08 10:11:14;;;;;;;10.30;6.50;;;;;;;;;;5021010;28;20190;-69
2023/09/08 10:13:40;;;;;;;11.33;7.27;;;;;;;;;;5018838;28;20256;-69
2023/09/08 10:16:08;;;;;;;12.38;7.70;;;;;;;;;;5016714;28;20390;-70
2023/09/08 10:18:34;;;;;;;12.85;8.13;;;;;;;;;;5034549;28;20457;-69
2023/09/08 10:21:03;;;;;;;15.87;8.23;;;;;;;;;;5017383;28;20592;-69
2023/09/08 10:23:42;;;;;;;16.40;8.50;;;;;;;;;;5034415;28;20390;-70
2023/09/08 10:26:10;;;;;;;12.35;7.90;;;;;;;;;;5015941;28;20386;-70
2023/09/08 10:28:37;;;;;;;13.07;7.20;;;;;;;;;;5035816;28;20267;-69
2023/09/08 10:31:03;;;;;;;11.50;6.67;;;;;;;;;;5018370;28;20206;-69
2023/09/08 10:33:29;;;;;;;11.67;7.43;;;;;;;;;;5035225;28;20387;-70
2023/09/08 10:35:56;;;;;;;9.68;7.15;;;;;;;;;;5016077;28;20503;-69
2023/09/08 10:38:23;;;;;;;10.17;7.33;;;;;;;;;;5033764;28;20275;-70
2023/09/08 10:40:49;;;;;;;12.77;8.67;;;;;;;;;;5015758;28;20659;-70
2023/09/08 10:43:15;;;;;;;11.90;8.60;;;;;;;;;;5032452;28;20379;-70
2023/09/08 10:45:41;;;;;;;13.18;8.25;;;;;;;;;;5014346;28;20382;-70
2023/09/08 10:48:08;;;;;;;12.80;7.80;;;;;;;;;;5032317;28;20379;-70
2023/09/08 10:50:34;;;;;;;;;;;;;;;;;;5016031;28;20109;-69
2023/09/08 10:53:10;;;;;;;11.50;7.57;;;;;;;;;;5032066;28;20380;-70
2023/09/08 10:55:53;;;;;;;12.40;7.63;;;;;;;;;;5014212;28;20494;-70
2023/09/08 10:58:31;;;;;;;9.90;7.90;;;;;;;;;;5032322;28;20406;-69
2023/09/08 11:01:00;;;;;;;13.18;8.07;;;;;;;;;;5014980;28;20387;-70
2023/09/08 11:03:27;;;;;;;9.40;6.80;;;;;;;;;;5032173;28;20749;-71
2023/09/08 11:05:53;;;;;;;;;;;;;;;;;;5035013;28;20033;-70
2023/09/08 11:08:19;;;;;;;;;;;;;;;;;;5015805;28;19905;-70
2023/09/08 11:10:45;;;;;;;;;;;;;;;;;;5016040;28;19959;-69
2023/09/08 11:13:11;;;;;;;;;;;;;;;;;;5033437;28;19905;-69
2023/09/08 11:15:37;;;;;;;;;;;;;;;;;;5015606;28;19995;-69
2023/09/08 11:18:03;;;;;;;;;;;;;;;;;;5017316;28;19909;-70
2023/09/08 11:20:29;;;;;;;;;;;;;;;;;;5037616;28;19912;-70
2023/09/08 11:22:55;;;;;;;;;;;;;;;;;;5037318;28;19905;-70
2023/09/08 11:25:21;;;;;;;;;;;;;;;;;;5037411;28;20355;-70
2023/09/08 11:27:47;;;;;;;;;;;;;;;;;;5037330;28;19905;-70
2023/09/08 11:30:13;;;;;;;;;;;;;;;;;;5019711;28;19912;-69
2023/09/08 11:32:39;;;;;;;;;;;;;;;;;;5020625;28;19998;-70
2023/09/08 11:35:07;;;;;;;;;;;;;;;;;;5019338;28;19905;-69
2023/09/08 11:37:33;;;;;;;;;;;;;;;;;;5019132;28;20366;-69
2023/09/08 11:39:58;;;;;;;;;;;;;;;;;;5019322;28;19905;-70
2023/09/08 11:42:25;;;;;;;9.63;7.57;;;;;;;;;;5017768;28;20845;-70
2023/09/08 11:44:51;;;;;;;9.73;7.90;;;;;;;;;;5035558;28;20447;-70
2023/09/08 11:47:17;;;;;;;12.32;7.30;;;;;;;;;;5035268;28;20394;-70
2023/09/08 11:49:44;;;;;;;10.90;7.22;;;;;;;;;;5017512;28;20375;-70
2023/09/08 11:52:10;;;;;;;13.03;7.00;;;;;;;;;;5017328;28;20423;-69
2023/09/08 11:54:37;;;;;;;12.30;8.10;;;;;;;;;;5035348;28;20409;-70
2023/09/08 11:57:04;;;;;;;10.53;7.77;;;;;;;;;;5017461;28;20407;-69
2023/09/08 11:59:35;;;;;;;9.95;8.18;;;;;;;;;;5035523;28;20379;-69
2023/09/08 12:02:01;;;;;;;13.43;7.93;;;;;;;;;;5036626;28;20744;-69
2023/09/08 12:04:28;;;;;;;11.27;7.30;;;;;;;;;;5035386;28;20745;-69
2023/09/08 12:06:55;;;;;;;10.85;8.13;;;;;;;;;;5035043;28;20391;-69
2023/09/08 12:09:22;;;;;;;15.53;8.53;;;;;;;;;;5017302;28;20441;-69
2023/09/08 12:11:48;;;;;;;12.68;8.38;;;;;;;;;;5034979;28;20436;-69
2023/09/08 12:14:15;;;;;;;12.73;8.40;;;;;;;;;;5035136;28;20398;-68
2023/09/08 12:16:44;;;;;;;10.52;7.50;;;;;;;;;;5034669;28;20472;-68
2023/09/08 12:19:29;;;;;;;12.63;7.70;;;;;;;;;;5031694;22;20435;-69
2023/09/08 12:21:56;;;;;;;9.65;7.30;;;;;;;;;;5018468;28;20475;-70
2023/09/08 12:24:42;;;;;;;9.82;7.00;;;;;;;;;;5037525;28;20383;-70
2023/09/08 12:27:08;;;;;;;9.20;7.13;;;;;;;;;;5035562;28;20425;-70
2023/09/08 12:29:34;;;;;;;12.53;7.73;;;;;;;;;;5033438;28;20380;-70
2023/09/08 12:32:00;;;;;;;12.63;8.73;;;;;;;;;;5036166;28;20382;-71
2023/09/08 12:34:26;;;;;;;11.82;8.40;;;;;;;;;;5034681;28;20750;-70
2023/09/08 12:36:55;;;;;;;13.63;8.07;;;;;;;;;;5034859;28;20395;-69
2023/09/08 12:39:21;;;;;;;10.18;8.05;;;;;;;;;;5034150;28;20839;-69
2023/09/08 12:41:47;;;;;;;8.75;7.35;;;;;;;;;;5034868;28;20399;-70
2023/09/08 12:44:13;;;;;;;9.90;7.78;;;;;;;;;;5034415;28;20892;-70
2023/09/08 12:46:39;;;;;;;14.37;7.93;;;;;;;;;;5034470;28;20383;-70
2023/09/08 12:49:05;;;;;;;10.83;8.17;;;;;;;;;;5033966;28;20379;-70
2023/09/08 12:51:31;;;;;;;11.23;7.20;;;;;;;;;;5035457;28;20386;-70
2023/09/08 12:53:57;;;;;;;11.25;7.57;;;;;;;;;;5034494;28;20763;-71
2023/09/08 12:56:23;;;;;;;10.27;7.18;;;;;;;;;;5015948;28;20404;-70
2023/09/08 12:58:49;;;;;;;10.18;7.30;;;;;;;;;;5033621;28;20449;-69
2023/09/08 13:01:15;;;;;;;13.33;7.53;;;;;;;;;;5017177;28;20788;-68
2023/09/08 13:03:41;;;;;;;12.48;7.25;;;;;;;;;;5033617;28;20371;-69
2023/09/08 13:06:07;;;;;;;8.82;6.82;;;;;;;;;;5015791;28;20387;-69
2023/09/08 13:08:33;;;;;;;11.75;7.13;;;;;;;;;;5033416;28;20381;-70
2023/09/08 13:10:59;;;;;;;9.93;7.20;;;;;;;;;;5033788;28;20875;-68
2023/09/08 13:13:25;;;;;;;15.40;7.70;;;;;;;;;;5033675;28;20383;-69
2023/09/08 13:15:51;;;;;;;9.73;7.53;;;;;;;;;;5015633;28;20386;-70
2023/09/08 13:18:17;;;;;;;12.48;7.50;;;;;;;;;;5015920;28;20401;-69
2023/09/08 13:20:43;;;;;;;10.57;7.90;;;;;;;;;;5033309;28;20757;-70
2023/09/08 13:23:09;;;;;;;8.82;6.95;;;;;;;;;;5033734;28;20687;-69
2023/09/08 13:25:35;;;;;;;9.38;6.90;;;;;;;;;;5033493;28;20380;-69
2023/09/08 13:28:01;;;;;;;11.30;7.00;;;;;;;;;;5016011;28;20478;-70
2023/09/08 13:30:27;;;;;;;10.65;6.90;;;;;;;;;;5015661;28;20475;-70
2023/09/08 13:32:55;;;;;;;9.10;6.28;;;;;;;;;;5017014;28;20388;-71
2023/09/08 13:35:21;;;;;;;7.63;5.78;;;;;;;;;;5029411;28;20442;-70
2023/09/08 13:37:47;;;;;;;8.75;5.93;;;;;;;;;;5043961;28;20486;-69
2023/09/08 13:40:14;;;;;;;9.18;6.05;;;;;;;;;;5035686;28;20398;-69
2023/09/08 13:42:40;;;;;;;9.83;6.50;;;;;;;;;;5033319;28;20379;-69
2023/09/08 13:45:06;;;;;;;9.25;6.28;;;;;;;;;;5033187;28;20833;-69
2023/09/08 13:47:32;;;;;;;7.90;6.03;;;;;;;;;;5015422;28;20387;-69
2023/09/08 13:49:58;;;;;;;9.20;6.30;;;;;;;;;;5015043;28;20914;-68
2023/09/08 13:52:24;;;;;;;8.25;6.40;;;;;;;;;;5016160;28;20776;-69
2023/09/08 13:54:50;;;;;;;9.68;6.18;;;;;;;;;;5017217;28;20437;-69
2023/09/08 13:57:15;;;;;;;9.10;6.00;;;;;;;;;;5035351;28;20399;-70
2023/09/08 13:59:41;;;;;;;6.57;5.90;;;;;;;;;;5033761;28;20868;-70
2023/09/08 14:02:07;;;;;;;8.30;5.70;;;;;;;;;;5033877;28;20906;-70
2023/09/08 14:04:33;;;;;;;7.75;6.05;;;;;;;;;;5033178;28;20428;-70
2023/09/08 14:06:59;;;;;;;9.52;5.95;;;;;;;;;;5032891;28;20932;-71
2023/09/08 14:09:26;;;;;;;14.57;6.37;;;;;;;;;;5033448;28;20473;-69
2023/09/08 14:11:52;;;;;;;10.07;6.30;;;;;;;;;;5015603;28;20390;-70
2023/09/08 14:14:18;;;;;;;11.07;5.70;;;;;;;;;;5016582;28;20179;-70
2023/09/08 14:16:44;;;;;;;6.18;5.68;;;;;;;;;;5034402;28;20188;-70
2023/09/08 14:19:10;;;;;;;8.82;5.63;;;;;;;;;;5034864;28;20210;-70
2023/09/08 14:21:37;;;;;;;13.23;5.85;;;;;;;;;;5036691;28;20168;-71
2023/09/08 14:24:03;;;;;;;10.30;6.47;;;;;;;;;;5034520;28;20177;-71
2023/09/08 14:26:29;;;;;;;7.63;6.38;;;;;;;;;;5033938;28;20174;-70
2023/09/08 14:28:55;;;;;;;7.72;5.70;;;;;;;;;;5033624;28;20225;-70
2023/09/08 14:31:21;;;;;;;8.52;6.15;;;;;;;;;;5015671;28;20175;-69
2023/09/08 14:33:47;;;;;;;8.82;6.50;;;;;;;;;;5015794;28;20644;-69
2023/09/08 14:36:17;;;;;;;10.85;6.30;;;;;;;;;;5033089;28;20175;-69